.
WxDataArchive / Data Records for 2013-12-26
2013-12-25 December 2013 2013-12-27

Data Records for Thursday, 26 December 2013

Time	Temp	Chill	HIndex	Humid	Dewpt	 Wind 	HiWind	WindDir	Rain 	Barom 
-----	----	-----	------	-----	-----	------	------	-------	-----	----- 
00:00	26.3	26.3	26.3	87	23.0	1	4	248	0.00	30.136 
00:05	26.3	26.3	26.3	87	23.0	0	3	248	0.00	30.136 
00:10	26.3	26.3	26.3	87	23.0	0	2	248	0.00	30.136 
00:15	26.4	26.4	26.4	87	23.1	1	4	248	0.00	30.129 
00:20	26.4	26.4	26.4	87	23.1	1	3	248	0.00	30.129 
00:25	26.4	26.4	26.4	87	23.1	1	5	248	0.00	30.129 
00:30	26.6	26.6	26.6	87	23.3	1	5	248	0.00	30.121 
00:35	26.6	26.6	26.6	87	23.3	0	3	248	0.00	30.121 
00:40	26.6	26.6	26.6	87	23.3	1	4	248	0.00	30.121 
00:45	26.6	26.6	26.6	87	23.3	0	2	248	0.00	30.115 
00:50	26.6	26.6	26.6	88	23.5	0	3	248	0.00	30.115 
00:55	26.7	26.7	26.7	88	23.6	1	4	248	0.00	30.115 
01:00	26.7	26.7	26.7	88	23.6	1	5	248	0.00	30.114 
01:05	26.7	26.7	26.7	88	23.6	0	2	248	0.00	30.114 
01:10	26.7	26.7	26.7	88	23.6	0	2	248	0.00	30.114 
01:15	26.7	26.7	26.7	88	23.6	1	3	248	0.00	30.106 
01:20	26.9	26.9	26.9	88	23.8	0	3	248	0.00	30.106 
01:25	27.0	27.0	27.0	88	23.9	0	2	248	0.00	30.106 
01:30	27.0	27.0	27.0	89	24.2	1	3	248	0.00	30.102 
01:35	27.0	27.0	27.0	89	24.2	1	4	248	0.00	30.102 
01:40	27.2	27.2	27.2	89	24.4	0	2	248	0.00	30.102 
01:45	27.2	27.2	27.2	89	24.4	0	3	248	0.00	30.098 
01:50	27.2	27.2	27.2	90	24.7	0	2	248	0.00	30.098 
01:55	27.3	27.3	27.3	90	24.8	0	4	248	0.00	30.098 
02:00	27.3	27.3	27.3	90	24.8	1	4	248	0.00	30.095 
02:05	27.3	27.3	27.3	90	24.8	0	2	248	0.00	30.095 
02:10	27.5	27.5	27.5	90	25.0	0	2	248	0.00	30.095 
02:15	27.5	27.5	27.5	90	25.0	0	3	248	0.00	30.093 
02:20	27.5	27.5	27.5	91	25.2	1	3	248	0.00	30.093 
02:25	27.6	27.6	27.6	91	25.3	0	2	248	0.00	30.093 
02:30	27.6	27.6	27.6	91	25.3	0	3	248	0.00	30.093 
02:35	27.8	27.8	27.8	91	25.5	1	4	248	0.00	30.093 
02:40	27.8	27.8	27.8	91	25.5	1	4	248	0.00	30.093 
02:45	27.9	27.9	27.9	91	25.6	0	2	248	0.00	30.096 
02:50	27.9	27.9	27.9	91	25.6	1	4	248	0.00	30.096 
02:55	28.1	28.1	28.1	91	25.8	1	3	248	0.00	30.096 
03:00	28.2	28.2	28.2	91	25.9	1	4	248	0.00	30.100 
03:05	28.2	28.2	28.2	91	25.9	1	7	248	0.00	30.100 
03:10	28.2	28.2	28.2	91	25.9	2	9	248	0.00	30.100 
03:15	28.4	28.4	28.4	91	26.1	2	6	248	0.00	30.102 
03:20	28.4	28.4	28.4	91	26.1	2	7	248	0.00	30.102 
03:25	28.4	28.4	28.4	91	26.1	3	6	248	0.00	30.102 
03:30	28.2	28.2	28.2	90	25.7	3	7	248	0.00	30.106 
03:35	28.2	28.2	28.2	90	25.7	2	6	248	0.00	30.106 
03:40	28.2	28.2	28.2	89	25.4	3	6	270	0.00	30.106 
03:45	28.1	28.1	28.1	89	25.3	2	7	270	0.00	30.106 
03:50	28.1	28.1	28.1	89	25.3	2	6	248	0.00	30.106 
03:55	27.9	27.9	27.9	88	24.8	2	5	270	0.00	30.106 
04:00	27.9	27.9	27.9	88	24.8	2	6	270	0.00	30.111 
04:05	27.8	27.8	27.8	88	24.7	3	6	270	0.00	30.111 
04:10	27.8	27.8	27.8	87	24.4	2	4	270	0.00	30.111 
04:15	27.8	27.8	27.8	87	24.4	2	6	248	0.00	30.111 
04:20	27.8	27.8	27.8	87	24.4	2	4	270	0.00	30.111 
04:25	27.6	27.6	27.6	86	24.0	3	5	270	0.00	30.111 
04:30	27.6	27.6	27.6	85	23.7	3	7	270	0.00	30.114 
04:35	27.6	27.6	27.6	85	23.7	2	4	270	0.00	30.114 
04:40	27.6	27.6	27.6	85	23.7	2	6	248	0.00	30.114 
04:45	27.6	27.6	27.6	85	23.7	2	5	248	0.00	30.123 
04:50	27.5	27.5	27.5	85	23.6	2	6	248	0.00	30.123 
04:55	27.5	27.5	27.5	85	23.6	2	7	270	0.00	30.123 
05:00	27.3	27.3	27.3	84	23.1	3	7	270	0.00	30.130 
05:05	27.2	27.2	27.2	84	23.0	3	7	248	0.00	30.130 
05:10	27.2	27.2	27.2	83	22.7	3	7	270	0.00	30.130 
05:15	27.2	27.2	27.2	83	22.7	2	6	270	0.00	30.138 
05:20	27.0	27.0	27.0	82	22.3	2	6	248	0.00	30.138 
05:25	27.0	27.0	27.0	82	22.3	3	7	270	0.00	30.138 
05:30	27.0	27.0	27.0	80	21.7	2	6	248	0.00	30.143 
05:35	27.0	27.0	27.0	80	21.7	2	5	248	0.00	30.143 
05:40	27.0	27.0	27.0	80	21.7	1	4	248	0.00	30.143 
05:45	26.9	26.9	26.9	79	21.3	2	5	270	0.00	30.146 
05:50	26.9	26.9	26.9	78	21.0	3	8	270	0.00	30.146 
05:55	26.7	26.7	26.7	78	20.8	1	4	248	0.00	30.146 
06:00	26.7	26.7	26.7	78	20.8	2	6	248	0.00	30.147 
06:05	26.6	26.6	26.6	77	20.4	3	5	270	0.00	30.147 
06:10	26.3	26.3	26.3	77	20.1	2	4	270	0.00	30.147 
06:15	26.1	26.1	26.1	77	19.9	2	5	270	0.00	30.153 
06:20	25.8	25.8	25.8	77	19.6	2	7	248	0.00	30.153 
06:25	25.6	25.6	25.6	77	19.4	3	6	270	0.00	30.153 
06:30	25.4	25.4	25.4	77	19.2	3	5	270	0.00	30.164 
06:35	25.3	25.3	25.3	77	19.1	2	5	248	0.00	30.164 
06:40	25.1	25.1	25.1	77	18.9	2	6	248	0.00	30.164 
06:45	25.1	25.1	25.1	77	18.9	2	5	248	0.00	30.165 
06:50	25.1	25.1	25.1	77	18.9	3	5	270	0.00	30.165 
06:55	25.1	25.1	25.1	78	19.2	1	4	270	0.00	30.165 
07:00	25.1	25.1	25.1	78	19.2	1	5	270	0.00	30.182 
07:05	25.0	25.0	25.0	78	19.1	3	6	270	0.00	30.182 
07:10	24.8	24.8	24.8	78	18.9	2	4	270	0.00	30.182 
07:15	24.7	24.7	24.7	78	18.8	2	6	248	0.00	30.193 
07:20	24.4	24.4	24.4	77	18.2	2	6	270	0.00	30.193 
07:25	24.4	24.4	24.4	77	18.2	1	4	270	0.00	30.193 
07:30	24.4	24.4	24.4	77	18.2	2	6	270	0.00	30.204 
07:35	24.4	24.4	24.4	77	18.2	2	4	248	0.00	30.204 
07:40	24.2	24.2	24.2	76	17.7	2	6	270	0.00	30.204 
07:45	24.1	19.0	24.1	74	17.0	4	7	270	0.00	30.211 
07:50	23.8	23.8	23.8	74	16.7	2	5	248	0.00	30.211 
07:55	23.5	23.5	23.5	74	16.5	2	6	248	0.00	30.211 
08:00	23.3	23.3	23.3	73	15.9	2	6	292	0.00	30.223 
08:05	23.0	23.0	23.0	73	15.7	2	5	270	0.00	30.223 
08:10	22.7	22.7	22.7	72	15.1	2	4	248	0.00	30.223 
08:15	22.5	22.5	22.5	71	14.5	2	5	270	0.00	30.228 
08:20	22.4	22.4	22.4	71	14.4	2	4	248	0.00	30.228 
08:25	22.2	22.2	22.2	71	14.3	1	3	248	0.00	30.228 
08:30	22.2	22.2	22.2	72	14.6	0	3	248	0.00	30.229 
08:35	22.1	22.1	22.1	72	14.5	1	3	248	0.00	30.229 
08:40	21.9	21.9	21.9	73	14.6	0	2	248	0.00	30.229 
08:45	21.8	21.8	21.8	73	14.5	1	3	248	0.00	30.229 
08:50	21.8	21.8	21.8	74	14.8	1	4	248	0.00	30.229 
08:55	21.6	21.6	21.6	74	14.6	1	6	248	0.00	30.229 
09:00	21.6	21.6	21.6	74	14.6	2	4	248	0.00	30.242 
09:05	21.4	21.4	21.4	74	14.4	1	5	248	0.00	30.242 
09:10	21.4	21.4	21.4	74	14.4	2	5	248	0.00	30.242 
09:15	21.3	21.3	21.3	74	14.3	2	6	248	0.00	30.250 
09:20	21.6	21.6	21.6	74	14.6	1	5	270	0.00	30.250 
09:25	21.6	21.6	21.6	74	14.6	2	6	270	0.00	30.250 
09:30	21.8	21.8	21.8	74	14.8	2	3	248	0.00	30.263 
09:35	21.8	21.8	21.8	73	14.5	2	6	248	0.00	30.263 
09:40	21.8	21.8	21.8	74	14.8	1	3	270	0.00	30.263 
09:45	21.8	21.8	21.8	73	14.5	2	5	270	0.00	30.267 
09:50	21.8	21.8	21.8	73	14.5	2	3	270	0.00	30.267 
09:55	21.6	21.6	21.6	73	14.3	2	5	248	0.00	30.267 
10:00	21.8	21.8	21.8	73	14.5	1	3	248	0.00	30.280 
10:05	21.8	21.8	21.8	73	14.5	2	5	270	0.00	30.280 
10:10	21.6	21.6	21.6	72	14.0	3	5	270	0.00	30.280 
10:15	21.3	21.3	21.3	72	13.7	3	5	270	0.00	30.303 
10:20	21.1	21.1	21.1	73	13.8	2	6	248	0.00	30.303 
10:25	21.3	21.3	21.3	73	14.0	2	3	270	0.00	30.303 
10:30	21.4	21.4	21.4	74	14.4	2	4	248	0.00	30.311 
10:35	21.8	21.8	21.8	74	14.8	2	4	248	0.00	30.311 
10:40	21.8	21.8	21.8	73	14.5	3	6	248	0.00	30.311 
10:45	21.8	21.8	21.8	74	14.8	2	6	248	0.00	30.310 
10:50	21.9	21.9	21.9	74	14.9	2	5	270	0.00	30.310 
10:55	22.2	22.2	22.2	74	15.2	1	3	270	0.00	30.310 
11:00	22.5	22.5	22.5	74	15.5	1	4	270	0.00	30.317 
11:05	22.9	22.9	22.9	73	15.6	1	5	270	0.00	30.317 
11:10	22.9	22.9	22.9	73	15.6	1	3	248	0.00	30.317 
11:15	23.0	23.0	23.0	74	16.0	1	6	248	0.00	30.309 
11:20	23.2	23.2	23.2	74	16.2	2	6	292	0.00	30.309 
11:25	23.3	23.3	23.3	74	16.3	2	5	270	0.00	30.309 
11:30	23.0	23.0	23.0	73	15.7	2	5	248	0.00	30.315 
11:35	23.2	23.2	23.2	74	16.2	1	6	248	0.00	30.315 
11:40	23.5	23.5	23.5	73	16.1	1	6	270	0.00	30.315 
11:45	23.5	23.5	23.5	71	15.5	3	6	270	0.00	30.312 
11:50	23.6	23.6	23.6	71	15.6	1	4	270	0.00	30.312 
11:55	23.9	23.9	23.9	71	15.9	2	6	270	0.00	30.312 
12:00	24.1	24.1	24.1	70	15.8	2	6	292	0.00	30.317 
12:05	24.4	24.4	24.4	69	15.7	2	4	270	0.00	30.317 
12:10	24.4	24.4	24.4	68	15.4	2	6	248	0.00	30.317 
12:15	24.7	24.7	24.7	68	15.7	1	4	248	0.00	30.308 
12:20	25.0	25.0	25.0	65	14.9	2	5	270	0.00	30.308 
12:25	25.0	25.0	25.0	63	14.2	1	5	248	0.00	30.308 
12:30	25.0	25.0	25.0	62	13.8	3	6	248	0.00	30.306 
12:35	25.0	25.0	25.0	60	13.1	3	5	248	0.00	30.306 
12:40	25.3	25.3	25.3	59	13.0	2	5	270	0.00	30.306 
12:45	25.4	25.4	25.4	58	12.7	2	4	270	0.00	30.306 
12:50	25.7	25.7	25.7	58	13.0	1	3	270	0.00	30.306 
12:55	26.1	26.1	26.1	58	13.4	0	2	270	0.00	30.306 
13:00	26.4	26.4	26.4	57	13.3	1	4	248	0.00	30.302 
13:05	26.4	26.4	26.4	56	12.9	2	6	248	0.00	30.302 
13:10	26.6	26.6	26.6	55	12.6	1	4	248	0.00	30.302 
13:15	26.6	26.6	26.6	54	12.2	2	5	270	0.00	30.302 
13:20	26.7	26.7	26.7	55	12.7	2	5	270	0.00	30.302 
13:25	27.0	27.0	27.0	55	13.0	1	3	270	0.00	30.302 
13:30	27.2	27.2	27.2	55	13.2	3	5	270	0.00	30.304 
13:35	27.0	27.0	27.0	54	12.6	3	6	270	0.00	30.304 
13:40	27.2	27.2	27.2	55	13.2	2	5	270	0.00	30.304 
13:45	27.2	27.2	27.2	56	13.6	2	5	270	0.00	30.312 
13:50	27.3	27.3	27.3	57	14.1	2	5	270	0.00	30.312 
13:55	27.3	27.3	27.3	56	13.7	3	4	270	0.00	30.312 
14:00	27.3	27.3	27.3	57	14.1	2	5	270	0.00	30.307 
14:05	27.5	27.5	27.5	58	14.7	2	5	270	0.00	30.307 
14:10	27.6	27.6	27.6	59	15.2	2	4	248	0.00	30.307 
14:15	27.5	27.5	27.5	58	14.7	1	3	270	0.00	30.300 
14:20	27.5	27.5	27.5	58	14.7	2	6	248	0.00	30.300 
14:25	27.3	27.3	27.3	59	14.9	2	4	248	0.00	30.300 
14:30	27.3	27.3	27.3	59	14.9	1	3	292	0.00	30.305 
14:35	27.3	27.3	27.3	60	15.3	2	5	270	0.00	30.305 
14:40	27.2	27.2	27.2	60	15.2	1	4	248	0.00	30.305 
14:45	27.2	27.2	27.2	61	15.6	1	4	270	0.00	30.304 
14:50	27.2	27.2	27.2	60	15.2	2	4	270	0.00	30.304 
14:55	27.3	27.3	27.3	60	15.3	1	3	270	0.00	30.304 
15:00	27.5	27.5	27.5	60	15.5	2	6	270	0.00	30.303 
15:05	27.5	27.5	27.5	60	15.5	2	5	248	0.00	30.303 
15:10	27.5	27.5	27.5	61	15.8	1	5	248	0.00	30.303 
15:15	27.6	27.6	27.6	60	15.6	1	4	248	0.00	30.298 
15:20	27.6	27.6	27.6	61	15.9	1	4	248	0.00	30.298 
15:25	27.6	27.6	27.6	61	15.9	1	4	248	0.00	30.298 
15:30	27.6	27.6	27.6	61	15.9	0	4	248	0.00	30.299 
15:35	27.8	27.8	27.8	62	16.5	1	4	248	0.00	30.299 
15:40	27.8	27.8	27.8	62	16.5	1	3	248	0.00	30.299 
15:45	27.8	27.8	27.8	62	16.5	0	1	248	0.00	30.293 
15:50	27.9	27.9	27.9	63	17.0	0	1	248	0.00	30.293 
15:55	28.1	28.1	28.1	62	16.8	1	3	248	0.00	30.293 
16:00	28.1	28.1	28.1	63	17.2	0	2	248	0.00	30.298 
16:05	28.2	28.2	28.2	63	17.2	0	2	248	0.00	30.298 
16:10	28.2	28.2	28.2	64	17.6	0	1	248	0.00	30.298 
16:15	28.4	28.4	28.4	64	17.8	0	3	248	0.00	30.300 
16:20	28.4	28.4	28.4	64	17.8	0	1	248	0.00	30.300 
16:25	28.5	28.5	28.5	64	17.9	0	2	248	0.00	30.300 
16:30	28.5	28.5	28.5	64	17.9	0	3	248	0.00	30.304 
16:35	28.5	28.5	28.5	65	18.3	0	1	248	0.00	30.304 
16:40	28.5	28.5	28.5	64	17.9	0	2	248	0.00	30.304 
16:45	28.5	28.5	28.5	64	17.9	0	1	248	0.00	30.307 
16:50	28.5	28.5	28.5	64	17.9	0	1	248	0.00	30.307 
16:55	28.5	28.5	28.5	64	17.9	0	0	---	0.00	30.307 
17:00	28.5	28.5	28.5	65	18.3	0	1	248	0.00	30.309 
17:05	28.5	28.5	28.5	65	18.3	0	4	248	0.00	30.309 
17:10	28.5	28.5	28.5	65	18.3	0	2	248	0.00	30.309 
17:15	28.5	28.5	28.5	65	18.3	0	2	248	0.00	30.313 
17:20	28.7	28.7	28.7	65	18.4	0	1	248	0.00	30.313 
17:25	28.7	28.7	28.7	65	18.4	0	1	248	0.00	30.313 
17:30	28.5	28.5	28.5	65	18.3	0	1	248	0.00	30.313 
17:35	28.5	28.5	28.5	66	18.6	0	0	---	0.00	30.313 
17:40	28.5	28.5	28.5	66	18.6	0	1	248	0.00	30.313 
17:45	28.5	28.5	28.5	67	19.0	0	1	248	0.00	30.310 
17:50	28.5	28.5	28.5	67	19.0	0	1	248	0.00	30.310 
17:55	28.5	28.5	28.5	67	19.0	0	0	---	0.00	30.310 
18:00	28.5	28.5	28.5	67	19.0	0	0	---	0.00	30.311 
18:05	28.5	28.5	28.5	67	19.0	0	1	248	0.00	30.311 
18:10	28.5	28.5	28.5	67	19.0	0	0	---	0.00	30.311 
18:15	28.5	28.5	28.5	68	19.3	0	1	248	0.00	30.307 
18:20	28.5	28.5	28.5	68	19.3	0	1	248	0.00	30.307 
18:25	28.5	28.5	28.5	68	19.3	0	1	248	0.00	30.307 
18:30	28.7	28.7	28.7	68	19.5	0	1	248	0.00	30.304 
18:35	28.7	28.7	28.7	68	19.5	0	1	248	0.00	30.304 
18:40	28.7	28.7	28.7	68	19.5	0	1	248	0.00	30.304 
18:45	28.7	28.7	28.7	68	19.5	0	1	248	0.00	30.304 
18:50	28.7	28.7	28.7	68	19.5	0	1	248	0.00	30.304 
18:55	28.7	28.7	28.7	68	19.5	0	1	248	0.00	30.304 
19:00	28.7	28.7	28.7	69	19.8	0	1	248	0.00	30.301 
19:05	28.7	28.7	28.7	69	19.8	0	3	112	0.00	30.301 
19:10	28.8	28.8	28.8	69	19.9	0	2	112	0.00	30.301 
19:15	28.8	28.8	28.8	69	19.9	0	1	112	0.00	30.302 
19:20	28.8	28.8	28.8	70	20.3	0	2	112	0.00	30.302 
19:25	28.8	28.8	28.8	70	20.3	0	1	112	0.00	30.302 
19:30	28.8	28.8	28.8	70	20.3	0	1	112	0.00	30.295 
19:35	28.8	28.8	28.8	70	20.3	0	2	112	0.00	30.295 
19:40	28.8	28.8	28.8	71	20.6	0	2	112	0.00	30.295 
19:45	28.8	28.8	28.8	71	20.6	0	2	112	0.00	30.288 
19:50	28.8	28.8	28.8	71	20.6	0	2	112	0.00	30.288 
19:55	28.8	28.8	28.8	71	20.6	0	1	112	0.00	30.288 
20:00	28.8	28.8	28.8	72	20.9	0	2	112	0.00	30.284 
20:05	29.0	29.0	29.0	72	21.1	0	4	112	0.00	30.284 
20:10	29.0	29.0	29.0	72	21.1	0	1	112	0.00	30.284 
20:15	29.0	29.0	29.0	72	21.1	0	2	112	0.00	30.276 
20:20	29.0	29.0	29.0	72	21.1	0	3	112	0.00	30.276 
20:25	29.1	29.1	29.1	72	21.2	0	2	112	0.00	30.276 
20:30	29.3	29.3	29.3	72	21.4	0	1	112	0.00	30.275 
20:35	29.3	29.3	29.3	73	21.7	0	2	112	0.00	30.275 
20:40	29.4	29.4	29.4	73	21.8	0	1	112	0.00	30.275 
20:45	29.5	29.5	29.5	72	21.6	0	1	112	0.00	30.274 
20:50	29.7	29.7	29.7	72	21.8	0	1	112	0.00	30.274 
20:55	29.7	29.7	29.7	72	21.8	0	2	112	0.00	30.274 
21:00	29.8	29.8	29.8	72	21.9	0	1	112	0.00	30.270 
21:05	29.8	29.8	29.8	72	21.9	0	2	112	0.00	30.270 
21:10	30.0	30.0	30.0	72	22.1	0	3	248	0.00	30.270 
21:15	30.0	30.0	30.0	72	22.1	0	1	248	0.00	30.262 
21:20	30.0	30.0	30.0	72	22.1	0	1	248	0.00	30.262 
21:25	30.1	30.1	30.1	72	22.2	0	2	248	0.00	30.262 
21:30	30.1	30.1	30.1	72	22.2	0	2	248	0.00	30.268 
21:35	30.3	30.3	30.3	72	22.4	0	2	248	0.00	30.268 
21:40	30.4	30.4	30.4	72	22.5	0	2	248	0.00	30.268 
21:45	30.4	30.4	30.4	72	22.5	0	2	248	0.00	30.263 
21:50	30.6	30.6	30.6	72	22.7	0	3	248	0.00	30.263 
21:55	30.7	30.7	30.7	72	22.8	0	3	248	0.00	30.263 
22:00	30.9	30.9	30.9	72	23.0	1	5	248	0.00	30.262 
22:05	31.0	31.0	31.0	72	23.1	0	2	248	0.00	30.262 
22:10	31.2	31.2	31.2	71	22.9	1	3	248	0.00	30.262 
22:15	31.3	31.3	31.3	71	23.0	0	3	248	0.00	30.260 
22:20	31.5	31.5	31.5	71	23.2	0	3	292	0.00	30.260 
22:25	31.5	31.5	31.5	71	23.2	0	3	292	0.00	30.260 
22:30	31.5	31.5	31.5	71	23.2	0	3	270	0.00	30.261 
22:35	31.6	31.6	31.6	70	23.0	1	3	270	0.00	30.261 
22:40	31.8	31.8	31.8	70	23.2	1	4	248	0.00	30.261 
22:45	31.8	31.8	31.8	70	23.2	0	3	248	0.00	30.265 
22:50	31.8	31.8	31.8	70	23.2	0	3	248	0.00	30.265 
22:55	31.9	31.9	31.9	69	22.9	1	3	248	0.00	30.265 
23:00	31.9	31.9	31.9	69	22.9	1	4	248	0.00	30.269 
23:05	32.1	32.1	32.1	69	23.1	1	5	248	0.00	30.269 
23:10	32.1	32.1	32.1	69	23.1	1	5	248	0.00	30.269 
23:15	32.1	32.1	32.1	69	23.1	1	3	248	0.00	30.269 
23:20	32.2	32.2	32.2	69	23.2	1	4	248	0.00	30.269 
23:25	32.2	32.2	32.2	69	23.2	0	2	248	0.00	30.269 
23:30	32.2	32.2	32.2	69	23.2	1	4	248	0.00	30.270 
23:35	32.2	32.2	32.2	69	23.2	1	4	248	0.00	30.270 
23:40	32.4	32.4	32.4	69	23.4	1	3	248	0.00	30.270 
23:45	32.4	32.4	32.4	69	23.4	1	4	248	0.00	30.271 
23:50	32.4	32.4	32.4	68	23.0	1	3	248	0.00	30.271 
23:55	32.5	32.5	32.5	68	23.1	1	4	248	0.00	30.271 

CoCoRaHS
IN-AL-39
A2 Web Hosting
Creative Commons License
GoDaddy
search engine by freefind advanced

loaded 2018-11-12 19:08:31 • last modified 2010-11-18 10:43:29
Privacy PolicyDisclaimer
• wx.awcolley.com is powered by PmWiki v.2002016 •
• all content (unless otherwise noted) © 2018 A W Colley